sensor_id;sensor_type;location;lat;lon;timestamp;pressure;altitude;pressure_sealevel;temperature;humidity
24868;BME280;12941;48.698;9.310;2024-03-08T00:00:53;97784.3;;;9.42;58.353
24868;BME280;12941;48.698;9.310;2024-03-08T00:01:58;97786.7;;;9.45;58.378
24868;BME280;12941;48.698;9.310;2024-03-08T00:03:03;97782.2;;;9.49;58.179
24868;BME280;12941;48.698;9.310;2024-03-08T00:04:08;97783.1;;;9.49;58.223
24868;BME280;12941;48.698;9.310;2024-03-08T00:05:13;97779.6;;;9.5;58.116
24868;BME280;12941;48.698;9.310;2024-03-08T00:06:13;97770.2;;;9.51;57.955
24868;BME280;12941;48.698;9.310;2024-03-08T00:07:13;97764.20000000001;;;9.5;57.977
24868;BME280;12941;48.698;9.310;2024-03-08T00:08:18;97767.6;;;9.51;57.826
24868;BME280;12941;48.698;9.310;2024-03-08T00:09:23;97760.90000000001;;;9.48;57.898
24868;BME280;12941;48.698;9.310;2024-03-08T00:10:23;97761.1;;;9.45;58.151
24868;BME280;12941;48.698;9.310;2024-03-08T00:11:28;97760.29999999999;;;9.43;57.967
24868;BME280;12941;48.698;9.310;2024-03-08T00:12:28;97755.3;;;9.41;58.514
24868;BME280;12941;48.698;9.310;2024-03-08T00:13:28;97762.3;;;9.38;58.121
24868;BME280;12941;48.698;9.310;2024-03-08T00:14:33;97755.6;;;9.37;58.045
24868;BME280;12941;48.698;9.310;2024-03-08T00:15:33;97753.2;;;9.34;58.137
24868;BME280;12941;48.698;9.310;2024-03-08T00:16:33;97758.3;;;9.34;58.341
24868;BME280;12941;48.698;9.310;2024-03-08T00:17:38;97761.7;;;9.33;58.652
24868;BME280;12941;48.698;9.310;2024-03-08T00:18:38;97759.2;;;9.33;58.362
24868;BME280;12941;48.698;9.310;2024-03-08T00:19:38;97760.2;;;9.3;58.294
24868;BME280;12941;48.698;9.310;2024-03-08T00:20:43;97760.2;;;9.29;58.184
24868;BME280;12941;48.698;9.310;2024-03-08T00:21:48;97767.2;;;9.27;58.096
24868;BME280;12941;48.698;9.310;2024-03-08T00:22:53;97770.7;;;9.24;58.113
24868;BME280;12941;48.698;9.310;2024-03-08T00:23:58;97761.5;;;9.2;58.001
24868;BME280;12941;48.698;9.310;2024-03-08T00:25:03;97767.6;;;9.18;58.147
24868;BME280;12941;48.698;9.310;2024-03-08T00:26:08;97766.09999999999;;;9.14;58.11
24868;BME280;12941;48.698;9.310;2024-03-08T00:27:08;97768.1;;;9.08;58.178
24868;BME280;12941;48.698;9.310;2024-03-08T00:28:13;97765;;;9.03;58.354
24868;BME280;12941;48.698;9.310;2024-03-08T00:29:13;97770.2;;;9;58.479
24868;BME280;12941;48.698;9.310;2024-03-08T00:30:18;97768.9;;;8.93;58.727
24868;BME280;12941;48.698;9.310;2024-03-08T00:31:23;97764.9;;;8.88;58.88
24868;BME280;12941;48.698;9.310;2024-03-08T00:32:23;97767.6;;;8.85;59.038
24868;BME280;12941;48.698;9.310;2024-03-08T00:33:28;97767.7;;;8.83;59.164
24868;BME280;12941;48.698;9.310;2024-03-08T00:34:34;97762.59999999999;;;8.82;59.151
24868;BME280;12941;48.698;9.310;2024-03-08T00:35:38;97760.29999999999;;;8.77;59.199
24868;BME280;12941;48.698;9.310;2024-03-08T00:36:43;97764.8;;;8.72;59.32
24868;BME280;12941;48.698;9.310;2024-03-08T00:37:43;97760.90000000001;;;8.66;59.356
24868;BME280;12941;48.698;9.310;2024-03-08T00:38:48;97761.7;;;8.65;59.472
24868;BME280;12941;48.698;9.310;2024-03-08T00:39:53;97761.1;;;8.6;59.584
24868;BME280;12941;48.698;9.310;2024-03-08T00:40:58;97764.59999999999;;;8.59;59.7
24868;BME280;12941;48.698;9.310;2024-03-08T00:41:58;97761.40000000001;;;8.56;59.813
24868;BME280;12941;48.698;9.310;2024-03-08T00:43:03;97757.2;;;8.55;59.856
24868;BME280;12941;48.698;9.310;2024-03-08T00:44:04;97754.7;;;8.53;59.875
24868;BME280;12941;48.698;9.310;2024-03-08T00:45:04;97748.7;;;8.53;59.863
24868;BME280;12941;48.698;9.310;2024-03-08T00:46:08;97748;;;8.51;59.968
24868;BME280;12941;48.698;9.310;2024-03-08T00:47:13;97745.4;;;8.51;59.936
24868;BME280;12941;48.698;9.310;2024-03-08T00:48:13;97748;;;8.51;59.903
24868;BME280;12941;48.698;9.310;2024-03-08T00:49:13;97753.8;;;8.53;59.853
24868;BME280;12941;48.698;9.310;2024-03-08T00:50:18;97748.7;;;8.53;59.831
24868;BME280;12941;48.698;9.310;2024-03-08T00:51:23;97753;;;8.52;59.734
24868;BME280;12941;48.698;9.310;2024-03-08T00:52:23;97747.1;;;8.52;59.744
24868;BME280;12941;48.698;9.310;2024-03-08T00:53:28;97748.7;;;8.53;59.648
24868;BME280;12941;48.698;9.310;2024-03-08T00:54:33;97748.90000000001;;;8.5;59.687
24868;BME280;12941;48.698;9.310;2024-03-08T00:55:33;97741.3;;;8.48;59.687
24868;BME280;12941;48.698;9.310;2024-03-08T00:56:38;97744.8;;;8.47;59.802
24868;BME280;12941;48.698;9.310;2024-03-08T00:57:38;97751.59999999999;;;8.47;59.832
24868;BME280;12941;48.698;9.310;2024-03-08T00:58:43;97752.5;;;8.46;59.875
24868;BME280;12941;48.698;9.310;2024-03-08T00:59:43;97745.8;;;8.45;59.927
24868;BME280;12941;48.698;9.310;2024-03-08T01:00:48;97742.3;;;8.46;59.993
24868;BME280;12941;48.698;9.310;2024-03-08T01:01:48;97737.2;;;8.46;59.886
24868;BME280;12941;48.698;9.310;2024-03-08T01:02:48;97743.3;;;8.43;60
24868;BME280;12941;48.698;9.310;2024-03-08T01:03:48;97734.7;;;8.44;60.022
24868;BME280;12941;48.698;9.310;2024-03-08T01:04:48;97733.90000000001;;;8.44;60.098
24868;BME280;12941;48.698;9.310;2024-03-08T01:05:53;97737.2;;;8.46;60.079
24868;BME280;12941;48.698;9.310;2024-03-08T01:06:58;97731.2;;;8.45;60.024
24868;BME280;12941;48.698;9.310;2024-03-08T01:08:03;97733;;;8.45;59.938
24868;BME280;12941;48.698;9.310;2024-03-08T01:09:03;97732;;;8.46;59.95
24868;BME280;12941;48.698;9.310;2024-03-08T01:10:04;97726.2;;;8.44;59.916
24868;BME280;12941;48.698;9.310;2024-03-08T01:11:04;97724.59999999999;;;8.43;60.031
24868;BME280;12941;48.698;9.310;2024-03-08T01:12:08;97732.2;;;8.43;59.967
24868;BME280;12941;48.698;9.310;2024-03-08T01:13:08;97733.90000000001;;;8.44;59.991
24868;BME280;12941;48.698;9.310;2024-03-08T01:14:13;97733.8;;;8.45;59.981
24868;BME280;12941;48.698;9.310;2024-03-08T01:15:13;97729.6;;;8.44;59.959
24868;BME280;12941;48.698;9.310;2024-03-08T01:16:18;97729.7;;;8.43;59.902
24868;BME280;12941;48.698;9.310;2024-03-08T01:17:23;97726.3;;;8.42;59.967
24868;BME280;12941;48.698;9.310;2024-03-08T01:18:23;97732.2;;;8.43;59.999
24868;BME280;12941;48.698;9.310;2024-03-08T01:19:23;97726.3;;;8.42;59.978
24868;BME280;12941;48.698;9.310;2024-03-08T01:20:28;97726.3;;;8.42;59.988
24868;BME280;12941;48.698;9.310;2024-03-08T01:21:28;97728.8;;;8.42;60.01
24868;BME280;12941;48.698;9.310;2024-03-08T01:22:33;97720.4;;;8.41;60.042
24868;BME280;12941;48.698;9.310;2024-03-08T01:23:33;97715.09999999999;;;8.45;59.938
24868;BME280;12941;48.698;9.310;2024-03-08T01:24:38;97723.6;;;8.45;59.917
24868;BME280;12941;48.698;9.310;2024-03-08T01:25:39;97718.5;;;8.45;59.853
24868;BME280;12941;48.698;9.310;2024-03-08T01:26:43;97715.09999999999;;;8.45;59.841
24868;BME280;12941;48.698;9.310;2024-03-08T01:27:43;97707.4;;;8.45;59.852
24868;BME280;12941;48.698;9.310;2024-03-08T01:28:48;97713.3;;;8.47;59.769
24868;BME280;12941;48.698;9.310;2024-03-08T01:29:48;97708.3;;;8.44;59.776
24868;BME280;12941;48.698;9.310;2024-03-08T01:30:48;97703.2;;;8.44;60.065
24868;BME280;12941;48.698;9.310;2024-03-08T01:31:54;97713.3;;;8.47;59.607
24868;BME280;12941;48.698;9.310;2024-03-08T01:32:54;97704;;;8.46;59.521
24868;BME280;12941;48.698;9.310;2024-03-08T01:33:59;97710.79999999999;;;8.45;59.521
24868;BME280;12941;48.698;9.310;2024-03-08T01:34:59;97705.7;;;8.45;59.606
24868;BME280;12941;48.698;9.310;2024-03-08T01:35:58;97710.90000000001;;;8.44;59.809
24868;BME280;12941;48.698;9.310;2024-03-08T01:36:59;97699.90000000001;;;8.43;59.646
24868;BME280;12941;48.698;9.310;2024-03-08T01:38:03;97704.1;;;8.43;59.506
24868;BME280;12941;48.698;9.310;2024-03-08T01:39:03;97702.59999999999;;;8.4;59.566
24868;BME280;12941;48.698;9.310;2024-03-08T01:40:09;97700.09999999999;;;8.38;59.597
24868;BME280;12941;48.698;9.310;2024-03-08T01:41:09;97700.09999999999;;;8.38;59.597
24868;BME280;12941;48.698;9.310;2024-03-08T01:42:13;97700.09999999999;;;8.38;59.564
24868;BME280;12941;48.698;9.310;2024-03-08T01:43:16;97695.8;;;8.39;59.48
24868;BME280;12941;48.698;9.310;2024-03-08T01:44:19;97703.5;;;8.37;59.424
24868;BME280;12941;48.698;9.310;2024-03-08T01:45:19;97695.1;;;8.35;59.518
24868;BME280;12941;48.698;9.310;2024-03-08T01:46:19;97687.5;;;8.35;59.454
24868;BME280;12941;48.698;9.310;2024-03-08T01:47:19;97694.3;;;8.35;59.538
24868;BME280;12941;48.698;9.310;2024-03-08T01:48:19;97697.7;;;8.35;59.582
24868;BME280;12941;48.698;9.310;2024-03-08T01:49:24;97689.9;;;8.37;59.531
24868;BME280;12941;48.698;9.310;2024-03-08T01:50:24;97683.90000000001;;;8.38;59.424
24868;BME280;12941;48.698;9.310;2024-03-08T01:51:29;97684.79999999999;;;8.37;59.349
24868;BME280;12941;48.698;9.310;2024-03-08T01:52:29;97679;;;8.35;59.409
24868;BME280;12941;48.698;9.310;2024-03-08T01:53:34;97677.3;;;8.34;59.344
24868;BME280;12941;48.698;9.310;2024-03-08T01:54:34;97671.40000000001;;;8.33;59.312
24868;BME280;12941;48.698;9.310;2024-03-08T01:55:34;97674.8;;;8.32;59.354
24868;BME280;12941;48.698;9.310;2024-03-08T01:56:39;97668.9;;;8.3;59.36
24868;BME280;12941;48.698;9.310;2024-03-08T01:57:39;97671.6;;;8.29;59.38
24868;BME280;12941;48.698;9.310;2024-03-08T01:58:39;97664.8;;;8.28;59.293
24868;BME280;12941;48.698;9.310;2024-03-08T01:59:39;97663.09999999999;;;8.28;59.261
24868;BME280;12941;48.698;9.310;2024-03-08T02:00:39;97664.9;;;8.26;59.259
24868;BME280;12941;48.698;9.310;2024-03-08T02:01:44;97660.6;;;8.27;59.335
24868;BME280;12941;48.698;9.310;2024-03-08T02:02:44;97664.70000000001;;;8.29;59.263
24868;BME280;12941;48.698;9.310;2024-03-08T02:03:44;97663.9;;;8.29;59.112
24868;BME280;12941;48.698;9.310;2024-03-08T02:04:44;97663.09999999999;;;8.28;59.058
24868;BME280;12941;48.698;9.310;2024-03-08T02:05:44;97663.09999999999;;;8.28;59.09
24868;BME280;12941;48.698;9.310;2024-03-08T02:06:44;97654.7;;;8.26;59.162
24868;BME280;12941;48.698;9.310;2024-03-08T02:07:49;97657.3;;;8.25;59.364
24868;BME280;12941;48.698;9.310;2024-03-08T02:08:49;97658.1;;;8.25;59.257
24868;BME280;12941;48.698;9.310;2024-03-08T02:09:49;97647.1;;;8.25;58.989
24868;BME280;12941;48.698;9.310;2024-03-08T02:10:54;97650.5;;;8.25;58.989
24868;BME280;12941;48.698;9.310;2024-03-08T02:11:59;97653.8;;;8.26;59.259
24868;BME280;12941;48.698;9.310;2024-03-08T02:13:04;97649.59999999999;;;8.25;58.979
24868;BME280;12941;48.698;9.310;2024-03-08T02:14:09;97647.90000000001;;;8.25;59.032
24868;BME280;12941;48.698;9.310;2024-03-08T02:15:09;97647.90000000001;;;8.25;58.85
24868;BME280;12941;48.698;9.310;2024-03-08T02:16:09;97647.90000000001;;;8.25;58.774
24868;BME280;12941;48.698;9.310;2024-03-08T02:17:14;97642.8;;;8.25;58.893
24868;BME280;12941;48.698;9.310;2024-03-08T02:18:19;97646.3;;;8.24;58.892
24868;BME280;12941;48.698;9.310;2024-03-08T02:19:19;97645.5;;;8.22;58.696
24868;BME280;12941;48.698;9.310;2024-03-08T02:20:24;97645.5;;;8.22;58.718
24868;BME280;12941;48.698;9.310;2024-03-08T02:21:24;97642.1;;;8.22;58.716
24868;BME280;12941;48.698;9.310;2024-03-08T02:22:29;97638;;;8.19;58.776
24868;BME280;12941;48.698;9.310;2024-03-08T02:23:34;97643.1;;;8.19;58.68
24868;BME280;12941;48.698;9.310;2024-03-08T02:24:39;97639.70000000001;;;8.19;58.68
24868;BME280;12941;48.698;9.310;2024-03-08T02:25:44;97633;;;8.16;58.731
24868;BME280;12941;48.698;9.310;2024-03-08T02:26:44;97634.7;;;8.17;58.646
24868;BME280;12941;48.698;9.310;2024-03-08T02:27:49;97634.79999999999;;;8.14;58.599
24868;BME280;12941;48.698;9.310;2024-03-08T02:28:54;97630.6;;;8.13;58.673
24868;BME280;12941;48.698;9.310;2024-03-08T02:29:54;97634.79999999999;;;8.14;58.878
24868;BME280;12941;48.698;9.310;2024-03-08T02:30:54;97629.7;;;8.14;58.652
24868;BME280;12941;48.698;9.310;2024-03-08T02:31:59;97631.5;;;8.14;58.566
24868;BME280;12941;48.698;9.310;2024-03-08T02:33:04;97636.7;;;8.12;58.521
24868;BME280;12941;48.698;9.310;2024-03-08T02:34:04;97625.59999999999;;;8.12;58.66
24868;BME280;12941;48.698;9.310;2024-03-08T02:35:04;97629.9;;;8.11;58.702
24868;BME280;12941;48.698;9.310;2024-03-08T02:36:04;97624;;;8.11;58.604
24868;BME280;12941;48.698;9.310;2024-03-08T02:37:09;97625.7;;;8.1;58.594
24868;BME280;12941;48.698;9.310;2024-03-08T02:38:09;97624;;;8.09;58.496
24868;BME280;12941;48.698;9.310;2024-03-08T02:39:09;97624.1;;;8.07;58.558
24868;BME280;12941;48.698;9.310;2024-03-08T02:40:14;97620.7;;;8.07;58.644
24868;BME280;12941;48.698;9.310;2024-03-08T02:41:19;97621.6;;;8.06;58.705
24868;BME280;12941;48.698;9.310;2024-03-08T02:42:24;97626;;;8.04;58.745
24868;BME280;12941;48.698;9.310;2024-03-08T02:43:24;97622.7;;;8.02;58.722
24868;BME280;12941;48.698;9.310;2024-03-08T02:44:29;97624.40000000001;;;8.01;58.979
24868;BME280;12941;48.698;9.310;2024-03-08T02:45:34;97617.6;;;8.02;58.797
24868;BME280;12941;48.698;9.310;2024-03-08T02:46:34;97619.2;;;8.03;58.744
24868;BME280;12941;48.698;9.310;2024-03-08T02:47:34;97617.6;;;8.02;58.893
24868;BME280;12941;48.698;9.310;2024-03-08T02:48:34;97618.3;;;8.04;58.874
24868;BME280;12941;48.698;9.310;2024-03-08T02:49:34;97616.7;;;8.03;58.787
24868;BME280;12941;48.698;9.310;2024-03-08T02:50:34;97618.3;;;8.04;58.82
24868;BME280;12941;48.698;9.310;2024-03-08T02:51:39;97609.79999999999;;;8.03;58.767
24868;BME280;12941;48.698;9.310;2024-03-08T02:52:39;97617.5;;;8.03;58.981
24868;BME280;12941;48.698;9.310;2024-03-08T02:53:44;97618.3;;;8.04;59.324
24868;BME280;12941;48.698;9.310;2024-03-08T02:54:49;97612.3;;;8.05;58.727
24868;BME280;12941;48.698;9.310;2024-03-08T02:55:49;97615.8;;;8.04;58.96
24868;BME280;12941;48.698;9.310;2024-03-08T02:56:54;97612.3;;;8.05;59.22
24868;BME280;12941;48.698;9.310;2024-03-08T02:57:59;97611.40000000001;;;8.06;58.748
24868;BME280;12941;48.698;9.310;2024-03-08T02:58:59;97615.7;;;8.05;59.026
24868;BME280;12941;48.698;9.310;2024-03-08T02:59:59;97612.2;;;8.08;59.029
24868;BME280;12941;48.698;9.310;2024-03-08T03:01:04;97619.8;;;8.08;58.847
24868;BME280;12941;48.698;9.310;2024-03-08T03:02:04;97605.3;;;8.08;59.095
24868;BME280;12941;48.698;9.310;2024-03-08T03:03:04;97607.1;;;8.08;59.062
24868;BME280;12941;48.698;9.310;2024-03-08T03:04:04;97603.59999999999;;;8.09;58.667
24868;BME280;12941;48.698;9.310;2024-03-08T03:05:09;97602.70000000001;;;8.1;58.755
24868;BME280;12941;48.698;9.310;2024-03-08T03:06:09;97612.90000000001;;;8.1;58.829
24868;BME280;12941;48.698;9.310;2024-03-08T03:07:09;97604.5;;;8.09;58.699
24868;BME280;12941;48.698;9.310;2024-03-08T03:08:14;97601.09999999999;;;8.09;58.817
24868;BME280;12941;48.698;9.310;2024-03-08T03:09:19;97603.59999999999;;;8.09;58.635
24868;BME280;12941;48.698;9.310;2024-03-08T03:10:24;97600.3;;;8.07;58.644
24868;BME280;12941;48.698;9.310;2024-03-08T03:11:29;97609.6;;;8.08;59.383
24868;BME280;12941;48.698;9.310;2024-03-08T03:12:34;97595.2;;;8.07;59.019
24868;BME280;12941;48.698;9.310;2024-03-08T03:13:34;97596.90000000001;;;8.08;58.418
24868;BME280;12941;48.698;9.310;2024-03-08T03:14:39;97596.1;;;8.06;58.759
24868;BME280;12941;48.698;9.310;2024-03-08T03:15:39;97591;;;8.06;58.813
24868;BME280;12941;48.698;9.310;2024-03-08T03:16:39;97598;;;8.02;58.979
24868;BME280;12941;48.698;9.310;2024-03-08T03:17:39;97598.8;;;8.03;58.979
24868;BME280;12941;48.698;9.310;2024-03-08T03:18:39;97596.3;;;8.03;59.815
24868;BME280;12941;48.698;9.310;2024-03-08T03:19:40;97593.7;;;8.03;59.537
24868;BME280;12941;48.698;9.310;2024-03-08T03:20:44;97598.90000000001;;;8.01;58.689
24868;BME280;12941;48.698;9.310;2024-03-08T03:21:44;97591.3;;;8;58.837
24868;BME280;12941;48.698;9.310;2024-03-08T03:22:44;97588;;;7.98;58.823
24868;BME280;12941;48.698;9.310;2024-03-08T03:23:49;97595.7;;;7.96;59.313
24868;BME280;12941;48.698;9.310;2024-03-08T03:24:49;97600;;;7.96;58.896
24868;BME280;12941;48.698;9.310;2024-03-08T03:25:54;97593.3;;;7.93;58.807
24868;BME280;12941;48.698;9.310;2024-03-08T03:26:54;97589.9;;;7.93;58.999
24868;BME280;12941;48.698;9.310;2024-03-08T03:27:59;97595.9;;;7.93;59.106
24868;BME280;12941;48.698;9.310;2024-03-08T03:28:59;97591.7;;;7.91;58.922
24868;BME280;12941;48.698;9.310;2024-03-08T03:29:59;97593.4;;;7.92;58.847
24868;BME280;12941;48.698;9.310;2024-03-08T03:30:59;97588.4;;;7.89;59.048
24868;BME280;12941;48.698;9.310;2024-03-08T03:32:04;97588.5;;;7.87;59.076
24868;BME280;12941;48.698;9.310;2024-03-08T03:33:04;97592.9;;;7.85;58.988
24868;BME280;12941;48.698;9.310;2024-03-08T03:34:09;97586.2;;;7.83;59.198
24868;BME280;12941;48.698;9.310;2024-03-08T03:35:15;97582;;;7.8;59.132
24868;BME280;12941;48.698;9.310;2024-03-08T03:36:19;97588.9;;;7.8;59.185
24868;BME280;12941;48.698;9.310;2024-03-08T03:37:24;97580.5;;;7.78;59.202
24868;BME280;12941;48.698;9.310;2024-03-08T03:38:24;97579.7;;;7.77;59.234
24868;BME280;12941;48.698;9.310;2024-03-08T03:39:29;97588.2;;;7.76;59.317
24868;BME280;12941;48.698;9.310;2024-03-08T03:40:35;97582.4;;;7.72;59.292
24868;BME280;12941;48.698;9.310;2024-03-08T03:41:39;97574.90000000001;;;7.69;59.514
24868;BME280;12941;48.698;9.310;2024-03-08T03:42:44;97587.8;;;7.66;59.68
24868;BME280;12941;48.698;9.310;2024-03-08T03:43:44;97581.1;;;7.65;59.753
24868;BME280;12941;48.698;9.310;2024-03-08T03:44:49;97576;;;7.65;59.988
24868;BME280;12941;48.698;9.310;2024-03-08T03:45:49;97585.40000000001;;;7.65;59.668
24868;BME280;12941;48.698;9.310;2024-03-08T03:46:54;97579.4;;;7.64;59.795
24868;BME280;12941;48.698;9.310;2024-03-08T03:47:59;97575.3;;;7.62;59.865
24868;BME280;12941;48.698;9.310;2024-03-08T03:48:59;97577.8;;;7.63;59.933
24868;BME280;12941;48.698;9.310;2024-03-08T03:50:05;97576.9;;;7.63;60.179
24868;BME280;12941;48.698;9.310;2024-03-08T03:51:09;97578.59999999999;;;7.64;59.923
24868;BME280;12941;48.698;9.310;2024-03-08T03:52:09;97570.1;;;7.63;59.847
24868;BME280;12941;48.698;9.310;2024-03-08T03:53:14;97577.8;;;7.63;59.868
24868;BME280;12941;48.698;9.310;2024-03-08T03:54:14;97577.8;;;7.63;60.039
24868;BME280;12941;48.698;9.310;2024-03-08T03:55:14;97577;;;7.61;60.24
24868;BME280;12941;48.698;9.310;2024-03-08T03:56:14;97572.79999999999;;;7.6;60.186
24868;BME280;12941;48.698;9.310;2024-03-08T03:57:14;97566.7;;;7.63;60.125
24868;BME280;12941;48.698;9.310;2024-03-08T03:58:14;97568.5;;;7.62;59.889
24868;BME280;12941;48.698;9.310;2024-03-08T03:59:19;97567.7;;;7.6;59.929
24868;BME280;12941;48.698;9.310;2024-03-08T04:00:24;97563.59999999999;;;7.58;60.085
24868;BME280;12941;48.698;9.310;2024-03-08T04:01:29;97572.1;;;7.58;59.99
24868;BME280;12941;48.698;9.310;2024-03-08T04:02:29;97576.4;;;7.56;60.116
24868;BME280;12941;48.698;9.310;2024-03-08T04:03:29;97572.2;;;7.55;60.199
24868;BME280;12941;48.698;9.310;2024-03-08T04:04:35;97569.7;;;7.55;60.113
24868;BME280;12941;48.698;9.310;2024-03-08T04:05:39;97574.7;;;7.55;60.081
24868;BME280;12941;48.698;9.310;2024-03-08T04:06:44;97573.1;;;7.54;60.167
24868;BME280;12941;48.698;9.310;2024-03-08T04:07:44;97575.59999999999;;;7.54;60.316
24868;BME280;12941;48.698;9.310;2024-03-08T04:08:44;97574.7;;;7.55;60.21
24868;BME280;12941;48.698;9.310;2024-03-08T04:09:49;97573.90000000001;;;7.55;60.199
24868;BME280;12941;48.698;9.310;2024-03-08T04:10:50;97573.1;;;7.54;60.21
24868;BME280;12941;48.698;9.310;2024-03-08T04:11:49;97566.3;;;7.53;60.229
24868;BME280;12941;48.698;9.310;2024-03-08T04:12:50;97569.8;;;7.52;60.304
24868;BME280;12941;48.698;9.310;2024-03-08T04:13:50;97569.8;;;7.52;60.068
24868;BME280;12941;48.698;9.310;2024-03-08T04:14:55;97571.6;;;7.5;60.289
24868;BME280;12941;48.698;9.310;2024-03-08T04:15:55;97573.40000000001;;;7.48;60.179
24868;BME280;12941;48.698;9.310;2024-03-08T04:16:59;97570.1;;;7.46;60.305
24868;BME280;12941;48.698;9.310;2024-03-08T04:17:59;97572.7;;;7.46;60.294
24868;BME280;12941;48.698;9.310;2024-03-08T04:19:00;97567.6;;;7.46;60.391
24868;BME280;12941;48.698;9.310;2024-03-08T04:20:05;97567.5;;;7.48;60.425
24868;BME280;12941;48.698;9.310;2024-03-08T04:21:05;97565;;;7.46;60.358
24868;BME280;12941;48.698;9.310;2024-03-08T04:22:10;97565.8;;;7.47;60.391
24868;BME280;12941;48.698;9.310;2024-03-08T04:23:15;97559.1;;;7.46;60.368
24868;BME280;12941;48.698;9.310;2024-03-08T04:24:15;97559.90000000001;;;7.46;60.348
24868;BME280;12941;48.698;9.310;2024-03-08T04:25:15;97563.4;;;7.45;60.304
24868;BME280;12941;48.698;9.310;2024-03-08T04:26:20;97559.2;;;7.44;60.388
24868;BME280;12941;48.698;9.310;2024-03-08T04:27:20;97561.7;;;7.44;60.185
24868;BME280;12941;48.698;9.310;2024-03-08T04:28:25;97556.6;;;7.44;60.463
24868;BME280;12941;48.698;9.310;2024-03-08T04:29:25;97558.4;;;7.42;60.63
24868;BME280;12941;48.698;9.310;2024-03-08T04:30:30;97551.5;;;7.44;60.612
24868;BME280;12941;48.698;9.310;2024-03-08T04:31:35;97555.8;;;7.44;60.611
24868;BME280;12941;48.698;9.310;2024-03-08T04:32:35;97550.7;;;7.44;60.857
24868;BME280;12941;48.698;9.310;2024-03-08T04:33:35;97554.1;;;7.44;60.634
24868;BME280;12941;48.698;9.310;2024-03-08T04:34:40;97555.1;;;7.4;60.488
24868;BME280;12941;48.698;9.310;2024-03-08T04:35:45;97555.2;;;7.37;60.591
24868;BME280;12941;48.698;9.310;2024-03-08T04:36:45;97551.9;;;7.35;60.728
24868;BME280;12941;48.698;9.310;2024-03-08T04:37:50;97546.1;;;7.31;60.712
24868;BME280;12941;48.698;9.310;2024-03-08T04:38:50;97550.40000000001;;;7.31;60.861
24868;BME280;12941;48.698;9.310;2024-03-08T04:39:50;97549.7;;;7.29;60.773
24868;BME280;12941;48.698;9.310;2024-03-08T04:40:55;97557.3;;;7.29;60.826
24868;BME280;12941;48.698;9.310;2024-03-08T04:42:00;97548.90000000001;;;7.27;60.846
24868;BME280;12941;48.698;9.310;2024-03-08T04:43:00;97549.7;;;7.27;61.006
24868;BME280;12941;48.698;9.310;2024-03-08T04:44:00;97551.4;;;7.28;60.868
24868;BME280;12941;48.698;9.310;2024-03-08T04:45:05;97552.4;;;7.26;60.811
24868;BME280;12941;48.698;9.310;2024-03-08T04:46:10;97552.4;;;7.26;60.8
24868;BME280;12941;48.698;9.310;2024-03-08T04:47:10;97550;;;7.23;60.935
24868;BME280;12941;48.698;9.310;2024-03-08T04:48:15;97546.5;;;7.24;60.894
24868;BME280;12941;48.698;9.310;2024-03-08T04:49:20;97549;;;7.24;60.989
24868;BME280;12941;48.698;9.310;2024-03-08T04:50:25;97544.8;;;7.23;61.01
24868;BME280;12941;48.698;9.310;2024-03-08T04:51:30;97546.5;;;7.24;60.926
24868;BME280;12941;48.698;9.310;2024-03-08T04:52:30;97550.8;;;7.22;60.977
24868;BME280;12941;48.698;9.310;2024-03-08T04:53:30;97551.8;;;7.19;61.005
24868;BME280;12941;48.698;9.310;2024-03-08T04:54:30;97549.3;;;7.18;61.057
24868;BME280;12941;48.698;9.310;2024-03-08T04:55:35;97554.6;;;7.15;61.126
24868;BME280;12941;48.698;9.310;2024-03-08T04:56:40;97543.6;;;7.13;61.188
24868;BME280;12941;48.698;9.310;2024-03-08T04:57:45;97549.59999999999;;;7.12;61.314
24868;BME280;12941;48.698;9.310;2024-03-08T04:58:50;97550.5;;;7.11;61.366
24868;BME280;12941;48.698;9.310;2024-03-08T04:59:50;97552.3;;;7.1;61.324
24868;BME280;12941;48.698;9.310;2024-03-08T05:00:50;97545.4;;;7.11;61.409
24868;BME280;12941;48.698;9.310;2024-03-08T05:01:50;97542.1;;;7.1;61.366
24868;BME280;12941;48.698;9.310;2024-03-08T05:02:55;97550.59999999999;;;7.09;61.406
24868;BME280;12941;48.698;9.310;2024-03-08T05:03:55;97538.8;;;7.08;61.427
24868;BME280;12941;48.698;9.310;2024-03-08T05:04:55;97542.2;;;7.07;61.372
24868;BME280;12941;48.698;9.310;2024-03-08T05:05:55;97537.90000000001;;;7.07;61.405
24868;BME280;12941;48.698;9.310;2024-03-08T05:06:55;97543;;;7.07;61.427
24868;BME280;12941;48.698;9.310;2024-03-08T05:07:55;97546.3;;;7.1;61.419
24868;BME280;12941;48.698;9.310;2024-03-08T05:09:00;97536.3;;;7.06;61.361
24868;BME280;12941;48.698;9.310;2024-03-08T05:10:05;97529.5;;;7.05;61.392
24868;BME280;12941;48.698;9.310;2024-03-08T05:11:05;97533.8;;;7.05;61.476
24868;BME280;12941;48.698;9.310;2024-03-08T05:12:05;97531.3;;;7.03;61.539
24868;BME280;12941;48.698;9.310;2024-03-08T05:13:05;97526.2;;;7.03;61.539
24868;BME280;12941;48.698;9.310;2024-03-08T05:14:11;97534.79999999999;;;7.02;61.547
24868;BME280;12941;48.698;9.310;2024-03-08T05:15:15;97530.6;;;7.01;61.547
24868;BME280;12941;48.698;9.310;2024-03-08T05:16:15;97533.2;;;7;61.587
24868;BME280;12941;48.698;9.310;2024-03-08T05:17:20;97529.9;;;6.98;61.679
24868;BME280;12941;48.698;9.310;2024-03-08T05:18:20;97527.4;;;6.96;61.763
24868;BME280;12941;48.698;9.310;2024-03-08T05:19:20;97529.9;;;6.96;61.773
24868;BME280;12941;48.698;9.310;2024-03-08T05:20:25;97527.5;;;6.95;61.826
24868;BME280;12941;48.698;9.310;2024-03-08T05:21:30;97526.59999999999;;;6.94;61.899
24868;BME280;12941;48.698;9.310;2024-03-08T05:22:30;97531.8;;;6.93;61.864
24868;BME280;12941;48.698;9.310;2024-03-08T05:23:35;97532.8;;;6.9;61.904
24868;BME280;12941;48.698;9.310;2024-03-08T05:24:40;97532.8;;;6.89;61.998
24868;BME280;12941;48.698;9.310;2024-03-08T05:25:45;97538.9;;;6.86;62.111
24868;BME280;12941;48.698;9.310;2024-03-08T05:26:50;97527;;;6.85;62.185
24868;BME280;12941;48.698;9.310;2024-03-08T05:27:55;97538.09999999999;;;6.84;62.247